createdAt,value
2022-09-22T00:01:45.453Z,2.80
2022-09-22T00:04:14.913Z,3.35
2022-09-22T00:06:47.661Z,2.92
2022-09-22T00:09:22.083Z,3.28
2022-09-22T00:11:54.584Z,3.38
2022-09-22T00:14:27.302Z,3.15
2022-09-22T00:17:01.543Z,3.00
2022-09-22T00:19:34.066Z,3.15
2022-09-22T00:22:03.774Z,3.13
2022-09-22T00:24:36.930Z,2.83
2022-09-22T00:27:06.663Z,2.97
2022-09-22T00:29:36.486Z,3.00
2022-09-22T00:32:08.030Z,3.50
2022-09-22T00:34:37.225Z,3.05
2022-09-22T00:37:06.659Z,3.08
2022-09-22T00:39:35.694Z,3.40
2022-09-22T00:42:06.037Z,3.85
2022-09-22T00:44:40.493Z,3.88
2022-09-22T00:47:33.541Z,3.58
2022-09-22T00:50:13.336Z,4.35
2022-09-22T00:52:47.399Z,4.45
2022-09-22T00:55:21.222Z,4.88
2022-09-22T00:57:52.941Z,5.15
2022-09-22T01:00:22.936Z,6.28
2022-09-22T01:02:58.244Z,9.85
2022-09-22T01:05:28.846Z,12.35
2022-09-22T01:08:00.384Z,15.30
2022-09-22T01:10:29.652Z,13.98
2022-09-22T01:13:14.397Z,18.02
2022-09-22T01:15:58.970Z,10.00
2022-09-22T01:18:50.503Z,11.85
2022-09-22T01:21:28.490Z,10.52
2022-09-22T01:24:50.379Z,12.40
2022-09-22T01:28:00.944Z,13.13
2022-09-22T01:30:38.908Z,10.10
2022-09-22T01:33:24.432Z,10.82
2022-09-22T01:36:10.707Z,10.82
2022-09-22T01:38:49.355Z,8.88
2022-09-22T01:41:26.009Z,8.25
2022-09-22T01:44:02.839Z,6.25
2022-09-22T01:46:39.189Z,6.47
2022-09-22T01:49:13.906Z,6.65
2022-09-22T01:51:46.207Z,9.23
2022-09-22T01:54:20.171Z,16.08
2022-09-22T01:56:57.172Z,16.77
2022-09-22T01:59:31.807Z,18.00
2022-09-22T02:02:06.215Z,16.80
2022-09-22T02:04:40.304Z,16.10
2022-09-22T02:07:16.985Z,17.10
2022-09-22T02:09:48.731Z,15.57
2022-09-22T02:12:19.098Z,13.80
2022-09-22T02:14:48.876Z,12.52
2022-09-22T02:17:19.821Z,10.25
2022-09-22T02:19:50.636Z,9.50
2022-09-22T02:22:19.789Z,8.88
2022-09-22T02:24:49.595Z,9.15
2022-09-22T02:27:26.579Z,9.82
2022-09-22T02:30:02.253Z,12.18
2022-09-22T02:32:35.852Z,12.63
2022-09-22T02:35:06.510Z,16.35
2022-09-22T02:37:43.007Z,18.98
2022-09-22T02:40:20.314Z,13.67
2022-09-22T02:45:31.085Z,23.50
2022-09-22T02:48:07.252Z,23.40
2022-09-22T02:50:37.161Z,24.85
2022-09-22T02:53:13.833Z,23.48
2022-09-22T02:55:43.766Z,14.73
2022-09-22T02:58:14.866Z,16.38
2022-09-22T03:00:44.173Z,14.10
2022-09-22T03:03:14.907Z,13.68
2022-09-22T03:05:44.034Z,14.45
2022-09-22T03:08:13.173Z,18.08
2022-09-22T03:10:42.488Z,18.52
2022-09-22T03:13:18.927Z,15.13
2022-09-22T03:15:49.832Z,11.73
2022-09-22T03:18:28.846Z,10.65
2022-09-22T03:20:58.005Z,11.13
2022-09-22T03:23:27.174Z,10.30
2022-09-22T03:25:56.346Z,11.20
2022-09-22T03:28:25.564Z,13.70
2022-09-22T03:30:54.701Z,13.40
2022-09-22T03:33:26.011Z,11.35
2022-09-22T03:35:56.698Z,14.23
2022-09-22T03:38:25.901Z,13.02
2022-09-22T03:40:58.683Z,15.70
2022-09-22T03:43:28.006Z,15.20
2022-09-22T03:45:59.278Z,14.77
2022-09-22T03:48:30.140Z,12.07
2022-09-22T03:51:00.716Z,11.73
2022-09-22T03:53:30.237Z,11.73
2022-09-22T03:56:07.952Z,12.77
2022-09-22T03:58:38.388Z,12.45
2022-09-22T04:01:09.610Z,10.80
2022-09-22T04:03:39.848Z,7.75
2022-09-22T04:06:10.621Z,6.20
2022-09-22T04:08:40.175Z,8.02
2022-09-22T04:11:09.514Z,8.27
2022-09-22T04:13:42.689Z,8.02
2022-09-22T04:16:15.425Z,8.30
2022-09-22T04:18:45.026Z,7.50
2022-09-22T04:21:15.724Z,7.78
2022-09-22T04:23:45.040Z,7.20
2022-09-22T04:26:14.151Z,6.65
2022-09-22T04:28:43.372Z,6.53
2022-09-22T04:31:12.564Z,6.43
2022-09-22T04:33:41.847Z,7.00
2022-09-22T04:36:10.966Z,7.15
2022-09-22T04:38:41.463Z,6.35
2022-09-22T04:41:10.565Z,7.30
2022-09-22T04:43:40.043Z,7.95
2022-09-22T04:46:09.253Z,9.93
2022-09-22T04:48:38.367Z,11.05
2022-09-22T04:51:07.674Z,9.15
2022-09-22T04:53:36.842Z,10.27
2022-09-22T04:56:08.003Z,12.48
2022-09-22T04:58:37.114Z,11.65
2022-09-22T05:01:08.119Z,12.20
2022-09-22T05:03:39.168Z,13.63
2022-09-22T05:06:09.014Z,12.20
2022-09-22T05:08:38.153Z,11.90
2022-09-22T05:11:09.423Z,10.25
2022-09-22T05:13:41.191Z,8.95
2022-09-22T05:16:10.486Z,7.70
2022-09-22T05:18:39.903Z,6.60
2022-09-22T05:21:09.032Z,6.28
2022-09-22T05:23:39.499Z,5.57
2022-09-22T05:26:10.097Z,6.35
2022-09-22T05:28:39.320Z,6.22
2022-09-22T05:31:08.334Z,6.18
2022-09-22T05:33:37.465Z,5.70
2022-09-22T05:36:07.077Z,5.43
2022-09-22T05:38:36.201Z,4.68
2022-09-22T05:41:05.434Z,4.57
2022-09-22T05:43:36.034Z,4.03
2022-09-22T05:46:05.347Z,4.35
2022-09-22T05:48:34.609Z,4.47
2022-09-22T05:51:04.572Z,5.10
2022-09-22T05:53:33.782Z,4.32
2022-09-22T05:56:03.711Z,4.68
2022-09-22T05:58:35.147Z,4.90
2022-09-22T06:01:04.949Z,4.53
2022-09-22T06:03:34.158Z,4.72
2022-09-22T06:06:03.401Z,4.05
2022-09-22T06:08:32.553Z,8.50
2022-09-22T06:11:01.848Z,9.57
2022-09-22T06:13:31.241Z,11.40
2022-09-22T06:16:04.565Z,11.80
2022-09-22T06:18:33.693Z,10.85
2022-09-22T06:21:02.810Z,12.05
2022-09-22T06:23:32.062Z,9.88
2022-09-22T06:26:01.170Z,9.23
2022-09-22T06:28:30.335Z,8.80
2022-09-22T06:31:00.718Z,9.60
2022-09-22T06:33:32.080Z,8.32
2022-09-22T06:36:02.097Z,8.35
2022-09-22T06:38:32.372Z,10.10
2022-09-22T06:41:03.116Z,8.27
2022-09-22T06:43:33.040Z,7.60
2022-09-22T06:46:02.933Z,6.57
2022-09-22T06:48:33.584Z,6.45
2022-09-22T06:51:02.723Z,5.90
2022-09-22T06:53:31.799Z,6.10
2022-09-22T06:56:03.389Z,5.30
2022-09-22T06:58:47.028Z,6.03
2022-09-22T07:01:22.017Z,7.47
2022-09-22T07:03:52.838Z,8.82
2022-09-22T07:06:22.506Z,12.23
2022-09-22T07:08:51.560Z,16.40
2022-09-22T07:11:23.706Z,16.65
2022-09-22T07:13:55.106Z,17.05
2022-09-22T07:16:26.417Z,15.40
2022-09-22T07:18:59.540Z,15.35
2022-09-22T07:21:33.026Z,15.57
2022-09-22T07:24:02.289Z,16.02
2022-09-22T07:26:36.068Z,13.85
2022-09-22T07:29:11.727Z,10.98
2022-09-22T07:31:42.035Z,8.10
2022-09-22T07:34:13.647Z,6.68
2022-09-22T07:36:42.798Z,4.53
2022-09-22T07:39:12.183Z,4.45
2022-09-22T07:41:44.609Z,3.28
2022-09-22T07:44:33.429Z,3.40
2022-09-22T07:47:03.655Z,2.85
2022-09-22T07:49:34.338Z,2.60
2022-09-22T07:52:03.588Z,3.38
2022-09-22T07:54:34.770Z,2.95
2022-09-22T07:57:09.608Z,2.63
2022-09-22T07:59:39.761Z,2.70
2022-09-22T08:02:11.805Z,2.75
2022-09-22T08:04:42.450Z,2.42
2022-09-22T08:07:11.864Z,2.45
2022-09-22T08:09:40.959Z,2.22
2022-09-22T08:12:10.193Z,2.30
2022-09-22T08:14:39.345Z,2.53
2022-09-22T08:17:12.450Z,2.22
2022-09-22T08:19:43.240Z,2.45
2022-09-22T08:22:12.359Z,2.20
2022-09-22T08:24:45.813Z,2.40
2022-09-22T08:27:15.260Z,2.20
2022-09-22T08:29:44.822Z,2.10
2022-09-22T08:32:17.538Z,2.17
2022-09-22T08:34:48.163Z,1.90
2022-09-22T08:37:17.256Z,1.98
2022-09-22T08:39:46.413Z,2.20
2022-09-22T08:42:20.854Z,2.70
2022-09-22T08:45:00.873Z,2.13
2022-09-22T08:47:51.253Z,2.40
2022-09-22T08:50:56.020Z,2.40
2022-09-22T08:53:26.278Z,2.55
2022-09-22T08:56:07.110Z,2.22
2022-09-22T08:58:45.402Z,2.67
2022-09-22T09:01:40.928Z,3.30
2022-09-22T09:04:45.519Z,2.70
2022-09-22T09:07:25.861Z,4.10
2022-09-22T09:10:15.657Z,2.80
2022-09-22T09:13:11.595Z,3.17
2022-09-22T09:15:58.551Z,3.08
2022-09-22T09:18:34.026Z,2.78
2022-09-22T09:21:07.735Z,2.85
2022-09-22T09:26:36.647Z,2.47
2022-09-22T09:29:09.557Z,2.20
2022-09-22T09:31:46.243Z,2.13
2022-09-22T09:34:18.043Z,2.10
2022-09-22T09:36:52.653Z,2.10
2022-09-22T09:39:30.654Z,1.95
2022-09-22T09:42:02.026Z,1.85
2022-09-22T09:44:39.035Z,1.80
2022-09-22T09:47:19.589Z,1.63
2022-09-22T09:49:52.829Z,1.85
2022-09-22T09:52:24.092Z,1.90
2022-09-22T09:54:55.674Z,1.50
2022-09-22T09:57:28.335Z,1.50
2022-09-22T10:00:32.527Z,1.95
2022-09-22T10:03:17.296Z,1.42
2022-09-22T10:06:00.310Z,1.75
2022-09-22T10:08:35.227Z,1.70
2022-09-22T10:11:06.094Z,1.65
2022-09-22T10:13:37.565Z,1.23
2022-09-22T10:16:33.602Z,1.60
2022-09-22T10:19:22.562Z,1.70
2022-09-22T10:21:52.017Z,1.20
2022-09-22T10:24:31.869Z,1.58
2022-09-22T10:27:05.329Z,1.40
2022-09-22T10:29:39.579Z,1.45
2022-09-22T10:32:19.058Z,1.30
2022-09-22T10:34:57.325Z,1.20
2022-09-22T10:37:30.154Z,1.45
2022-09-22T10:40:02.876Z,1.30
2022-09-22T10:42:43.257Z,1.50
2022-09-22T10:45:16.380Z,1.20
2022-09-22T10:48:00.753Z,1.35
2022-09-22T10:50:51.920Z,1.20
2022-09-22T10:53:48.948Z,1.42
2022-09-22T10:56:30.226Z,1.40
2022-09-22T10:59:39.661Z,1.40
2022-09-22T11:02:54.833Z,1.60
2022-09-22T11:05:56.576Z,1.10
2022-09-22T11:08:43.671Z,1.38
2022-09-22T11:11:39.474Z,1.30
2022-09-22T11:14:29.656Z,1.55
2022-09-22T11:17:16.046Z,1.52
2022-09-22T11:20:19.411Z,1.67
2022-09-22T11:23:05.274Z,1.40
2022-09-22T11:26:04.807Z,1.20
2022-09-22T11:29:01.937Z,1.70
2022-09-22T11:31:48.278Z,1.45
2022-09-22T11:34:51.790Z,1.20
2022-09-22T11:37:38.583Z,1.25
2022-09-22T11:40:42.368Z,1.40
2022-09-22T11:43:36.322Z,1.40
2022-09-22T11:46:17.884Z,1.30
2022-09-22T11:49:10.700Z,1.40
2022-09-22T11:52:00.306Z,1.50
2022-09-22T11:55:00.470Z,1.73
2022-09-22T11:57:53.616Z,1.80
2022-09-22T12:00:35.337Z,1.40
2022-09-22T12:03:24.275Z,1.42
2022-09-22T12:06:06.092Z,1.50
2022-09-22T12:08:40.133Z,1.42
2022-09-22T12:11:16.153Z,1.35
2022-09-22T12:13:50.574Z,1.48
2022-09-22T12:16:25.225Z,1.80
2022-09-22T12:19:00.257Z,1.50
2022-09-22T12:21:50.024Z,1.52
2022-09-22T12:24:19.196Z,1.60
2022-09-22T12:26:52.054Z,1.52
2022-09-22T12:29:29.778Z,1.60
2022-09-22T12:32:08.526Z,1.50
2022-09-22T12:34:50.254Z,1.40
2022-09-22T12:37:33.437Z,1.35
2022-09-22T12:40:29.132Z,1.50
2022-09-22T12:43:02.144Z,1.60
2022-09-22T12:45:40.619Z,1.45
2022-09-22T12:48:23.029Z,1.55
2022-09-22T12:50:53.462Z,1.38
2022-09-22T12:53:29.841Z,1.80
2022-09-22T12:56:47.025Z,1.35
2022-09-22T12:59:59.813Z,2.40
2022-09-22T13:02:31.873Z,2.10
2022-09-22T13:05:46.385Z,1.55
2022-09-22T13:08:28.270Z,2.08
2022-09-22T13:11:07.846Z,1.70
2022-09-22T13:13:41.712Z,1.80
2022-09-22T13:16:38.116Z,2.03
2022-09-22T13:19:14.872Z,2.20
2022-09-22T13:21:47.671Z,1.73
2022-09-22T13:24:27.531Z,1.77
2022-09-22T13:27:14.985Z,2.35
2022-09-22T13:30:06.722Z,1.98
2022-09-22T13:32:36.703Z,1.83
2022-09-22T13:35:24.476Z,2.03
2022-09-22T13:38:01.583Z,1.92
2022-09-22T13:40:34.857Z,1.83
2022-09-22T13:43:14.790Z,2.10
2022-09-22T13:45:52.036Z,2.17
2022-09-22T13:48:22.567Z,1.98
2022-09-22T13:50:56.387Z,1.88
2022-09-22T13:53:36.642Z,1.77
2022-09-22T13:56:20.779Z,1.50
2022-09-22T13:58:57.165Z,1.67
2022-09-22T14:01:31.155Z,1.80
2022-09-22T14:04:29.591Z,1.50
2022-09-22T14:07:14.421Z,1.77
2022-09-22T14:09:49.047Z,1.80
2022-09-22T14:12:19.138Z,1.52
2022-09-22T14:14:49.705Z,1.90
2022-09-22T14:17:23.453Z,1.60
2022-09-22T14:19:58.973Z,1.60
2022-09-22T14:22:30.622Z,1.90
2022-09-22T14:25:02.495Z,1.75
2022-09-22T14:27:36.792Z,1.50
2022-09-22T14:30:17.841Z,1.58
2022-09-22T14:32:51.990Z,1.75
2022-09-22T14:35:28.318Z,1.70
2022-09-22T14:38:06.357Z,1.90
2022-09-22T14:40:52.988Z,2.10
2022-09-22T14:43:27.590Z,1.60
2022-09-22T14:46:24.514Z,1.80
2022-09-22T14:48:55.451Z,1.80
2022-09-22T14:51:27.295Z,2.05
2022-09-22T14:54:05.768Z,2.08
2022-09-22T14:56:36.877Z,2.35
2022-09-22T14:59:23.583Z,1.70
2022-09-22T15:02:12.348Z,1.67
2022-09-22T15:04:47.195Z,1.50
2022-09-22T15:07:26.111Z,1.30
2022-09-22T15:10:01.181Z,1.30
2022-09-22T15:12:40.900Z,1.38
2022-09-22T15:15:21.862Z,1.42
2022-09-22T15:18:11.569Z,1.40
2022-09-22T15:20:44.778Z,1.90
2022-09-22T15:23:23.122Z,1.40
2022-09-22T15:25:56.898Z,1.80
2022-09-22T15:28:28.968Z,1.33
2022-09-22T15:30:59.083Z,0.68
2022-09-22T15:33:29.950Z,1.27
2022-09-22T15:36:04.977Z,3.50
2022-09-22T15:38:38.478Z,2.10
2022-09-22T15:41:12.312Z,0.90
2022-09-22T15:43:47.462Z,1.27
2022-09-22T15:46:31.651Z,0.95
2022-09-22T15:49:13.326Z,1.00
2022-09-22T15:51:42.854Z,1.15
2022-09-22T15:54:18.236Z,1.20
2022-09-22T15:56:50.500Z,1.30
2022-09-22T15:59:23.730Z,0.95
2022-09-22T16:01:55.236Z,1.60
2022-09-22T16:04:34.326Z,3.90
2022-09-22T16:07:09.579Z,3.60
2022-09-22T16:09:38.934Z,1.73
2022-09-22T16:12:11.074Z,1.83
2022-09-22T16:14:42.597Z,2.22
2022-09-22T16:17:11.790Z,2.05
2022-09-22T16:19:42.412Z,1.60
2022-09-22T16:22:11.581Z,1.90
2022-09-22T16:24:40.811Z,1.73
2022-09-22T16:27:10.401Z,1.83
2022-09-22T16:29:39.591Z,2.40
2022-09-22T16:32:08.657Z,2.50
2022-09-22T16:34:43.013Z,2.92
2022-09-22T16:37:13.554Z,4.00
2022-09-22T16:39:42.921Z,4.03
2022-09-22T16:42:23.509Z,4.40
2022-09-22T16:44:54.108Z,4.95
2022-09-22T16:47:23.215Z,4.30
2022-09-22T16:49:54.403Z,2.25
2022-09-22T16:52:30.500Z,2.40
2022-09-22T16:55:00.881Z,2.50
2022-09-22T16:57:30.583Z,2.40
2022-09-22T16:59:59.763Z,2.70
2022-09-22T17:02:28.902Z,2.85
2022-09-22T17:04:59.170Z,4.00
2022-09-22T17:07:31.774Z,4.45
2022-09-22T17:10:01.678Z,3.20
2022-09-22T17:12:31.441Z,2.33
2022-09-22T17:15:03.663Z,2.50
2022-09-22T17:17:35.974Z,3.05
2022-09-22T17:20:06.169Z,2.50
2022-09-22T17:22:37.386Z,2.38
2022-09-22T17:25:12.793Z,2.50
2022-09-22T17:27:42.135Z,2.15
2022-09-22T17:30:12.641Z,2.13
2022-09-22T17:32:41.920Z,2.58
2022-09-22T17:35:11.857Z,2.85
2022-09-22T17:37:42.324Z,2.78
2022-09-22T17:40:12.601Z,3.15
2022-09-22T17:42:42.447Z,3.50
2022-09-22T17:45:14.067Z,3.80
2022-09-22T17:48:01.024Z,3.75
2022-09-22T17:50:47.880Z,3.00
2022-09-22T17:53:35.915Z,3.47
2022-09-22T17:58:34.752Z,3.58
2022-09-22T18:01:03.811Z,3.40
2022-09-22T18:03:32.950Z,3.75
2022-09-22T18:06:04.025Z,3.13
2022-09-22T18:08:35.149Z,3.83
2022-09-22T18:11:04.662Z,3.90
2022-09-22T18:13:39.117Z,3.85
2022-09-22T18:16:21.317Z,4.18
2022-09-22T18:18:50.960Z,4.00
2022-09-22T18:21:20.100Z,9.43
2022-09-22T18:23:50.669Z,5.45
2022-09-22T18:26:20.036Z,8.13
2022-09-22T18:28:54.155Z,7.95
2022-09-22T18:31:23.392Z,6.80
2022-09-22T18:33:54.025Z,6.88
2022-09-22T18:36:27.992Z,6.70
2022-09-22T18:39:04.934Z,6.50
2022-09-22T18:41:41.764Z,6.53
2022-09-22T18:44:14.165Z,7.53
2022-09-22T18:46:48.642Z,7.15
2022-09-22T18:49:20.328Z,7.45
2022-09-22T18:51:50.763Z,6.47
2022-09-22T18:54:23.441Z,7.53
2022-09-22T18:56:54.810Z,6.78
2022-09-22T18:59:26.412Z,6.47
2022-09-22T19:01:56.030Z,6.00
2022-09-22T19:04:27.355Z,6.13
2022-09-22T19:07:15.911Z,6.43
2022-09-22T19:09:47.098Z,8.07
2022-09-22T19:12:17.068Z,7.57
2022-09-22T19:14:46.471Z,6.65
2022-09-22T19:17:17.294Z,5.78
2022-09-22T19:19:50.025Z,5.80
2022-09-22T19:22:19.201Z,4.90
2022-09-22T19:24:50.997Z,4.57
2022-09-22T19:27:22.888Z,5.95
2022-09-22T19:29:52.680Z,5.32
2022-09-22T19:32:21.814Z,6.30
2022-09-22T19:34:53.765Z,6.25
2022-09-22T19:37:24.818Z,6.85
2022-09-22T19:39:55.419Z,7.00
2022-09-22T19:42:24.746Z,6.68
2022-09-22T19:44:53.788Z,7.38
2022-09-22T19:47:24.006Z,6.70
2022-09-22T19:49:53.638Z,8.35
2022-09-22T19:52:22.901Z,9.27
2022-09-22T19:54:52.802Z,10.02
2022-09-22T19:57:23.556Z,10.18
2022-09-22T19:59:52.765Z,9.65
2022-09-22T20:02:21.934Z,9.95
2022-09-22T20:04:52.421Z,9.82
2022-09-22T20:07:23.085Z,10.23
2022-09-22T20:09:52.964Z,8.55
2022-09-22T20:12:25.360Z,12.52
2022-09-22T20:14:54.724Z,13.93
2022-09-22T20:17:24.430Z,11.43
2022-09-22T20:19:55.461Z,11.98
2022-09-22T20:22:28.008Z,11.05
2022-09-22T20:25:01.981Z,10.75
2022-09-22T20:27:35.314Z,10.73
2022-09-22T20:30:06.908Z,11.30
2022-09-22T20:32:37.096Z,9.50
2022-09-22T20:35:08.065Z,9.10
2022-09-22T20:37:39.472Z,9.00
2022-09-22T20:40:15.458Z,8.32
2022-09-22T20:42:46.368Z,9.27
2022-09-22T20:45:18.365Z,10.50
2022-09-22T20:47:47.721Z,10.48
2022-09-22T20:50:16.997Z,10.70
2022-09-22T20:52:49.133Z,9.57
2022-09-22T20:55:18.475Z,8.40
2022-09-22T20:57:49.217Z,9.35
2022-09-22T21:00:18.800Z,9.75
2022-09-22T21:02:48.164Z,9.82
2022-09-22T21:05:17.669Z,11.15
2022-09-22T21:07:47.826Z,11.25
2022-09-22T21:10:34.403Z,11.60
2022-09-22T21:13:05.382Z,10.43
2022-09-22T21:15:34.475Z,9.55
2022-09-22T21:18:03.566Z,8.38
2022-09-22T21:20:32.746Z,8.98
2022-09-22T21:23:02.692Z,8.65
2022-09-22T21:25:31.815Z,8.10
2022-09-22T21:28:00.930Z,8.30
2022-09-22T21:30:31.314Z,9.07
2022-09-22T21:33:00.451Z,9.15
2022-09-22T21:35:29.538Z,9.98
2022-09-22T21:37:58.609Z,12.50
2022-09-22T21:40:27.758Z,13.02
2022-09-22T21:42:56.806Z,11.48
2022-09-22T21:45:25.867Z,9.60
2022-09-22T21:47:56.355Z,9.95
2022-09-22T21:50:25.658Z,11.18
2022-09-22T21:52:54.734Z,10.80
2022-09-22T21:55:23.853Z,11.15
2022-09-22T21:57:54.084Z,12.95
2022-09-22T22:00:48.126Z,13.27
2022-09-22T22:03:27.602Z,12.02
2022-09-22T22:06:05.406Z,13.80
2022-09-22T22:08:37.341Z,12.18
2022-09-22T22:11:09.289Z,11.95
2022-09-22T22:13:40.962Z,12.20
2022-09-22T22:16:14.341Z,13.00
2022-09-22T22:18:44.798Z,12.95
2022-09-22T22:21:16.630Z,15.43
2022-09-22T22:23:48.523Z,15.15
2022-09-22T22:26:20.783Z,14.55
2022-09-22T22:28:51.711Z,14.07
2022-09-22T22:31:23.143Z,13.73
2022-09-22T22:33:53.795Z,12.73
2022-09-22T22:36:24.155Z,12.52
2022-09-22T22:38:53.845Z,13.30
2022-09-22T22:41:22.914Z,12.25
2022-09-22T22:43:51.924Z,10.48
2022-09-22T22:46:21.463Z,10.38
2022-09-22T22:48:51.024Z,10.38
2022-09-22T22:51:22.629Z,11.15
2022-09-22T22:53:52.688Z,14.10
2022-09-22T22:56:23.750Z,14.35
2022-09-22T22:58:54.147Z,16.52
2022-09-22T23:01:25.149Z,15.70
2022-09-22T23:03:57.524Z,15.13
2022-09-22T23:06:30.723Z,16.17
2022-09-22T23:09:00.083Z,16.73
2022-09-22T23:11:31.791Z,15.30
2022-09-22T23:14:03.261Z,14.52
2022-09-22T23:16:35.360Z,13.02
2022-09-22T23:19:07.961Z,15.20
2022-09-22T23:21:38.794Z,14.52
2022-09-22T23:24:08.427Z,13.75
2022-09-22T23:26:38.219Z,13.10
2022-09-22T23:29:07.431Z,12.10
2022-09-22T23:31:36.553Z,12.07
2022-09-22T23:34:06.122Z,13.25
2022-09-22T23:36:35.194Z,15.65
2022-09-22T23:39:05.955Z,16.52
2022-09-22T23:41:37.457Z,18.35
2022-09-22T23:44:07.486Z,18.05
2022-09-22T23:46:37.550Z,11.63
2022-09-22T23:49:07.564Z,10.60
2022-09-22T23:51:37.056Z,10.32
2022-09-22T23:54:08.831Z,9.80
2022-09-22T23:56:38.217Z,11.20
2022-09-22T23:59:07.486Z,13.35
